sensor_id;sensor_type;location;lat;lon;timestamp;P1;durP1;ratioP1;P2;durP2;ratioP2
51184;SDS011;37248;59.350;18.050;2022-11-15T00:00:00;17.70;;;11.17;;
51184;SDS011;37248;59.350;18.050;2022-11-15T00:02:26;15.70;;;11.27;;
51184;SDS011;37248;59.350;18.050;2022-11-15T00:04:51;17.37;;;10.57;;
51184;SDS011;37248;59.350;18.050;2022-11-15T00:07:16;28.27;;;11.00;;
51184;SDS011;37248;59.350;18.050;2022-11-15T00:09:41;15.27;;;11.23;;
51184;SDS011;37248;59.350;18.050;2022-11-15T00:12:06;17.93;;;10.80;;
51184;SDS011;37248;59.350;18.050;2022-11-15T00:14:32;16.83;;;10.40;;
51184;SDS011;37248;59.350;18.050;2022-11-15T00:16:57;15.60;;;10.70;;
51184;SDS011;37248;59.350;18.050;2022-11-15T00:19:22;16.60;;;11.20;;
51184;SDS011;37248;59.350;18.050;2022-11-15T00:21:47;15.10;;;10.73;;
51184;SDS011;37248;59.350;18.050;2022-11-15T00:24:13;16.30;;;10.50;;
51184;SDS011;37248;59.350;18.050;2022-11-15T00:26:38;14.80;;;10.57;;
51184;SDS011;37248;59.350;18.050;2022-11-15T00:29:03;16.53;;;10.53;;
51184;SDS011;37248;59.350;18.050;2022-11-15T00:31:28;15.83;;;10.53;;
51184;SDS011;37248;59.350;18.050;2022-11-15T00:33:54;14.77;;;10.30;;
51184;SDS011;37248;59.350;18.050;2022-11-15T00:36:19;16.10;;;10.60;;
51184;SDS011;37248;59.350;18.050;2022-11-15T00:38:44;14.83;;;10.40;;
51184;SDS011;37248;59.350;18.050;2022-11-15T00:41:09;12.60;;;10.30;;
51184;SDS011;37248;59.350;18.050;2022-11-15T00:43:35;14.73;;;10.30;;
51184;SDS011;37248;59.350;18.050;2022-11-15T00:46:00;13.23;;;10.10;;
51184;SDS011;37248;59.350;18.050;2022-11-15T00:48:27;14.65;;;10.10;;
51184;SDS011;37248;59.350;18.050;2022-11-15T00:50:52;15.03;;;10.73;;
51184;SDS011;37248;59.350;18.050;2022-11-15T00:53:17;11.80;;;9.50;;
51184;SDS011;37248;59.350;18.050;2022-11-15T00:55:42;15.73;;;10.40;;
51184;SDS011;37248;59.350;18.050;2022-11-15T00:58:08;12.90;;;9.77;;
51184;SDS011;37248;59.350;18.050;2022-11-15T01:00:33;12.93;;;9.50;;
51184;SDS011;37248;59.350;18.050;2022-11-15T01:02:59;13.50;;;10.17;;
51184;SDS011;37248;59.350;18.050;2022-11-15T01:05:25;17.00;;;9.95;;
51184;SDS011;37248;59.350;18.050;2022-11-15T01:07:54;15.13;;;10.07;;
51184;SDS011;37248;59.350;18.050;2022-11-15T01:10:19;11.00;;;9.73;;
51184;SDS011;37248;59.350;18.050;2022-11-15T01:12:44;12.50;;;9.63;;
51184;SDS011;37248;59.350;18.050;2022-11-15T01:15:10;15.67;;;10.10;;
51184;SDS011;37248;59.350;18.050;2022-11-15T01:17:35;12.03;;;9.23;;
51184;SDS011;37248;59.350;18.050;2022-11-15T01:20:00;16.07;;;9.47;;
51184;SDS011;37248;59.350;18.050;2022-11-15T01:22:25;11.57;;;9.40;;
51184;SDS011;37248;59.350;18.050;2022-11-15T01:24:51;16.67;;;10.07;;
51184;SDS011;37248;59.350;18.050;2022-11-15T01:27:16;16.53;;;9.87;;
51184;SDS011;37248;59.350;18.050;2022-11-15T01:29:41;14.90;;;9.50;;
51184;SDS011;37248;59.350;18.050;2022-11-15T01:32:06;14.27;;;9.40;;
51184;SDS011;37248;59.350;18.050;2022-11-15T01:34:32;12.13;;;9.23;;
51184;SDS011;37248;59.350;18.050;2022-11-15T01:36:57;13.10;;;9.27;;
51184;SDS011;37248;59.350;18.050;2022-11-15T01:39:22;11.60;;;9.33;;
51184;SDS011;37248;59.350;18.050;2022-11-15T01:41:47;13.50;;;9.70;;
51184;SDS011;37248;59.350;18.050;2022-11-15T01:47:44;12.20;;;9.10;;
51184;SDS011;37248;59.350;18.050;2022-11-15T01:50:03;11.73;;;9.05;;
51184;SDS011;37248;59.350;18.050;2022-11-15T01:52:30;12.35;;;8.80;;
51184;SDS011;37248;59.350;18.050;2022-11-15T01:55:06;13.43;;;9.05;;
51184;SDS011;37248;59.350;18.050;2022-11-15T01:57:33;12.17;;;8.67;;
51184;SDS011;37248;59.350;18.050;2022-11-15T01:59:59;14.00;;;8.93;;
51184;SDS011;37248;59.350;18.050;2022-11-15T02:02:25;14.85;;;9.43;;
51184;SDS011;37248;59.350;18.050;2022-11-15T02:04:50;12.00;;;8.80;;
51184;SDS011;37248;59.350;18.050;2022-11-15T02:07:16;10.53;;;8.40;;
51184;SDS011;37248;59.350;18.050;2022-11-15T02:09:42;12.63;;;8.80;;
51184;SDS011;37248;59.350;18.050;2022-11-15T02:12:08;12.47;;;9.00;;
51184;SDS011;37248;59.350;18.050;2022-11-15T02:14:34;16.25;;;8.63;;
51184;SDS011;37248;59.350;18.050;2022-11-15T02:17:03;11.90;;;8.75;;
51184;SDS011;37248;59.350;18.050;2022-11-15T02:24:29;11.83;;;9.03;;
51184;SDS011;37248;59.350;18.050;2022-11-15T02:32:31;15.00;;;8.80;;
51184;SDS011;37248;59.350;18.050;2022-11-15T02:35:09;15.68;;;8.52;;
51184;SDS011;37248;59.350;18.050;2022-11-15T02:37:48;13.18;;;9.07;;
51184;SDS011;37248;59.350;18.050;2022-11-15T02:40:22;13.20;;;8.80;;
51184;SDS011;37248;59.350;18.050;2022-11-15T02:43:00;13.05;;;8.75;;
51184;SDS011;37248;59.350;18.050;2022-11-15T02:45:46;13.63;;;8.90;;
51184;SDS011;37248;59.350;18.050;2022-11-15T02:48:13;12.55;;;8.48;;
51184;SDS011;37248;59.350;18.050;2022-11-15T02:50:38;12.13;;;8.33;;
51184;SDS011;37248;59.350;18.050;2022-11-15T02:53:04;13.10;;;8.37;;
51184;SDS011;37248;59.350;18.050;2022-11-15T02:55:33;11.30;;;8.67;;
51184;SDS011;37248;59.350;18.050;2022-11-15T03:00:23;16.33;;;8.87;;
51184;SDS011;37248;59.350;18.050;2022-11-15T03:05:30;11.97;;;8.33;;
51184;SDS011;37248;59.350;18.050;2022-11-15T03:10:26;13.70;;;8.90;;
51184;SDS011;37248;59.350;18.050;2022-11-15T03:15:29;10.93;;;8.20;;
51184;SDS011;37248;59.350;18.050;2022-11-15T03:18:00;13.25;;;8.80;;
51184;SDS011;37248;59.350;18.050;2022-11-15T03:20:26;13.17;;;8.40;;
51184;SDS011;37248;59.350;18.050;2022-11-15T03:22:52;12.07;;;8.02;;
51184;SDS011;37248;59.350;18.050;2022-11-15T03:25:19;15.23;;;8.35;;
51184;SDS011;37248;59.350;18.050;2022-11-15T03:27:47;13.00;;;8.30;;
51184;SDS011;37248;59.350;18.050;2022-11-15T03:30:13;11.68;;;8.38;;
51184;SDS011;37248;59.350;18.050;2022-11-15T03:32:40;10.30;;;7.83;;
51184;SDS011;37248;59.350;18.050;2022-11-15T03:35:11;11.05;;;7.70;;
51184;SDS011;37248;59.350;18.050;2022-11-15T03:40:15;11.48;;;8.48;;
51184;SDS011;37248;59.350;18.050;2022-11-15T03:45:46;10.40;;;7.55;;
51184;SDS011;37248;59.350;18.050;2022-11-15T03:48:14;10.60;;;7.90;;
51184;SDS011;37248;59.350;18.050;2022-11-15T03:50:42;11.70;;;7.65;;
51184;SDS011;37248;59.350;18.050;2022-11-15T03:53:08;10.18;;;7.22;;
51184;SDS011;37248;59.350;18.050;2022-11-15T03:55:33;10.43;;;7.43;;
51184;SDS011;37248;59.350;18.050;2022-11-15T03:57:59;10.13;;;7.68;;
51184;SDS011;37248;59.350;18.050;2022-11-15T04:00:24;10.13;;;7.50;;
51184;SDS011;37248;59.350;18.050;2022-11-15T04:02:50;12.07;;;7.90;;
51184;SDS011;37248;59.350;18.050;2022-11-15T04:05:15;11.57;;;7.90;;
51184;SDS011;37248;59.350;18.050;2022-11-15T04:07:40;11.07;;;7.90;;
51184;SDS011;37248;59.350;18.050;2022-11-15T04:10:05;11.20;;;7.80;;
51184;SDS011;37248;59.350;18.050;2022-11-15T04:12:32;9.73;;;8.05;;
51184;SDS011;37248;59.350;18.050;2022-11-15T04:14:58;9.95;;;7.82;;
51184;SDS011;37248;59.350;18.050;2022-11-15T04:17:52;10.80;;;7.50;;
51184;SDS011;37248;59.350;18.050;2022-11-15T04:20:18;9.15;;;7.85;;
51184;SDS011;37248;59.350;18.050;2022-11-15T04:23:07;9.25;;;7.40;;
51184;SDS011;37248;59.350;18.050;2022-11-15T04:25:52;9.65;;;7.63;;
51184;SDS011;37248;59.350;18.050;2022-11-15T04:28:18;11.17;;;7.97;;
51184;SDS011;37248;59.350;18.050;2022-11-15T04:30:44;9.30;;;7.63;;
51184;SDS011;37248;59.350;18.050;2022-11-15T04:33:10;8.83;;;7.73;;
51184;SDS011;37248;59.350;18.050;2022-11-15T04:35:35;7.90;;;7.10;;
51184;SDS011;37248;59.350;18.050;2022-11-15T04:38:01;9.70;;;7.30;;
51184;SDS011;37248;59.350;18.050;2022-11-15T04:40:26;9.40;;;7.10;;
51184;SDS011;37248;59.350;18.050;2022-11-15T04:42:51;8.73;;;7.33;;
51184;SDS011;37248;59.350;18.050;2022-11-15T04:45:17;10.40;;;7.68;;
51184;SDS011;37248;59.350;18.050;2022-11-15T04:47:45;11.00;;;7.77;;
51184;SDS011;37248;59.350;18.050;2022-11-15T04:50:11;12.95;;;8.13;;
51184;SDS011;37248;59.350;18.050;2022-11-15T04:52:43;12.23;;;7.97;;
51184;SDS011;37248;59.350;18.050;2022-11-15T04:55:09;12.45;;;7.70;;
51184;SDS011;37248;59.350;18.050;2022-11-15T04:57:35;11.98;;;7.95;;
51184;SDS011;37248;59.350;18.050;2022-11-15T05:00:01;10.07;;;7.32;;
51184;SDS011;37248;59.350;18.050;2022-11-15T05:02:26;11.75;;;7.90;;
51184;SDS011;37248;59.350;18.050;2022-11-15T05:05:11;11.60;;;7.70;;
51184;SDS011;37248;59.350;18.050;2022-11-15T05:07:36;11.40;;;7.30;;
51184;SDS011;37248;59.350;18.050;2022-11-15T05:10:02;14.03;;;7.53;;
51184;SDS011;37248;59.350;18.050;2022-11-15T05:12:27;16.70;;;7.78;;
51184;SDS011;37248;59.350;18.050;2022-11-15T05:14:52;12.23;;;7.83;;
51184;SDS011;37248;59.350;18.050;2022-11-15T05:17:17;12.82;;;7.45;;
51184;SDS011;37248;59.350;18.050;2022-11-15T05:19:42;9.90;;;7.70;;
51184;SDS011;37248;59.350;18.050;2022-11-15T05:22:09;10.77;;;7.70;;
51184;SDS011;37248;59.350;18.050;2022-11-15T05:24:34;10.43;;;7.43;;
51184;SDS011;37248;59.350;18.050;2022-11-15T05:26:59;11.27;;;7.63;;
51184;SDS011;37248;59.350;18.050;2022-11-15T05:29:25;10.73;;;7.30;;
51184;SDS011;37248;59.350;18.050;2022-11-15T05:31:50;12.07;;;7.47;;
51184;SDS011;37248;59.350;18.050;2022-11-15T05:34:15;10.20;;;7.43;;
51184;SDS011;37248;59.350;18.050;2022-11-15T05:36:42;8.05;;;6.97;;
51184;SDS011;37248;59.350;18.050;2022-11-15T05:39:08;11.37;;;7.53;;
51184;SDS011;37248;59.350;18.050;2022-11-15T05:41:35;14.17;;;7.30;;
51184;SDS011;37248;59.350;18.050;2022-11-15T05:44:02;11.65;;;7.38;;
51184;SDS011;37248;59.350;18.050;2022-11-15T05:46:28;11.35;;;7.65;;
51184;SDS011;37248;59.350;18.050;2022-11-15T05:48:53;12.30;;;7.35;;
51184;SDS011;37248;59.350;18.050;2022-11-15T05:51:19;13.00;;;7.50;;
51184;SDS011;37248;59.350;18.050;2022-11-15T05:53:46;9.13;;;7.45;;
51184;SDS011;37248;59.350;18.050;2022-11-15T05:56:12;13.50;;;7.68;;
51184;SDS011;37248;59.350;18.050;2022-11-15T05:58:37;10.55;;;7.75;;
51184;SDS011;37248;59.350;18.050;2022-11-15T06:01:03;14.73;;;7.45;;
51184;SDS011;37248;59.350;18.050;2022-11-15T06:03:29;10.23;;;7.78;;
51184;SDS011;37248;59.350;18.050;2022-11-15T06:05:54;9.00;;;7.20;;
51184;SDS011;37248;59.350;18.050;2022-11-15T06:08:19;10.53;;;7.77;;
51184;SDS011;37248;59.350;18.050;2022-11-15T06:10:44;9.83;;;7.30;;
51184;SDS011;37248;59.350;18.050;2022-11-15T06:13:09;15.43;;;7.40;;
51184;SDS011;37248;59.350;18.050;2022-11-15T06:15:35;12.60;;;7.17;;
51184;SDS011;37248;59.350;18.050;2022-11-15T06:18:00;8.83;;;7.10;;
51184;SDS011;37248;59.350;18.050;2022-11-15T06:20:26;11.15;;;7.50;;
51184;SDS011;37248;59.350;18.050;2022-11-15T06:22:56;12.00;;;7.25;;
51184;SDS011;37248;59.350;18.050;2022-11-15T06:25:21;10.82;;;7.50;;
51184;SDS011;37248;59.350;18.050;2022-11-15T06:27:50;12.60;;;7.43;;
51184;SDS011;37248;59.350;18.050;2022-11-15T06:30:15;18.70;;;7.40;;
51184;SDS011;37248;59.350;18.050;2022-11-15T06:32:41;12.43;;;7.90;;
51184;SDS011;37248;59.350;18.050;2022-11-15T06:35:06;12.63;;;7.60;;
51184;SDS011;37248;59.350;18.050;2022-11-15T06:37:31;10.47;;;7.30;;
51184;SDS011;37248;59.350;18.050;2022-11-15T06:39:58;11.35;;;7.03;;
51184;SDS011;37248;59.350;18.050;2022-11-15T06:42:23;8.27;;;6.70;;
51184;SDS011;37248;59.350;18.050;2022-11-15T06:44:48;11.20;;;7.00;;
51184;SDS011;37248;59.350;18.050;2022-11-15T06:47:13;9.37;;;7.50;;
51184;SDS011;37248;59.350;18.050;2022-11-15T06:49:39;13.30;;;6.73;;
51184;SDS011;37248;59.350;18.050;2022-11-15T06:52:04;10.27;;;7.27;;
51184;SDS011;37248;59.350;18.050;2022-11-15T06:54:29;12.80;;;7.50;;
51184;SDS011;37248;59.350;18.050;2022-11-15T06:56:54;10.57;;;7.37;;
51184;SDS011;37248;59.350;18.050;2022-11-15T06:59:19;13.27;;;8.20;;
51184;SDS011;37248;59.350;18.050;2022-11-15T07:01:45;10.02;;;7.38;;
51184;SDS011;37248;59.350;18.050;2022-11-15T07:04:10;11.03;;;7.17;;
51184;SDS011;37248;59.350;18.050;2022-11-15T07:06:35;13.68;;;9.05;;
51184;SDS011;37248;59.350;18.050;2022-11-15T07:09:02;13.57;;;8.13;;
51184;SDS011;37248;59.350;18.050;2022-11-15T07:11:27;19.10;;;9.30;;
51184;SDS011;37248;59.350;18.050;2022-11-15T07:13:52;15.63;;;8.97;;
51184;SDS011;37248;59.350;18.050;2022-11-15T07:16:17;15.00;;;8.90;;
51184;SDS011;37248;59.350;18.050;2022-11-15T07:18:43;14.70;;;9.00;;
51184;SDS011;37248;59.350;18.050;2022-11-15T07:21:08;13.40;;;9.47;;
51184;SDS011;37248;59.350;18.050;2022-11-15T07:23:37;21.48;;;9.90;;
51184;SDS011;37248;59.350;18.050;2022-11-15T07:26:06;17.73;;;9.02;;
51184;SDS011;37248;59.350;18.050;2022-11-15T07:28:31;15.27;;;9.37;;
51184;SDS011;37248;59.350;18.050;2022-11-15T07:30:56;13.87;;;8.80;;
51184;SDS011;37248;59.350;18.050;2022-11-15T07:33:22;18.33;;;9.27;;
51184;SDS011;37248;59.350;18.050;2022-11-15T07:35:47;15.00;;;9.27;;
51184;SDS011;37248;59.350;18.050;2022-11-15T07:38:15;17.67;;;9.05;;
51184;SDS011;37248;59.350;18.050;2022-11-15T07:40:40;19.00;;;9.60;;
51184;SDS011;37248;59.350;18.050;2022-11-15T07:43:06;15.30;;;8.55;;
51184;SDS011;37248;59.350;18.050;2022-11-15T07:45:32;15.50;;;9.02;;
51184;SDS011;37248;59.350;18.050;2022-11-15T07:47:59;17.98;;;9.88;;
51184;SDS011;37248;59.350;18.050;2022-11-15T07:50:25;13.40;;;8.90;;
51184;SDS011;37248;59.350;18.050;2022-11-15T07:52:57;20.70;;;8.95;;
51184;SDS011;37248;59.350;18.050;2022-11-15T07:55:23;14.35;;;8.82;;
51184;SDS011;37248;59.350;18.050;2022-11-15T07:57:48;13.70;;;8.50;;
51184;SDS011;37248;59.350;18.050;2022-11-15T08:00:14;12.77;;;8.43;;
51184;SDS011;37248;59.350;18.050;2022-11-15T08:02:39;12.63;;;9.03;;
51184;SDS011;37248;59.350;18.050;2022-11-15T08:05:05;12.82;;;8.80;;
51184;SDS011;37248;59.350;18.050;2022-11-15T08:07:30;12.43;;;9.00;;
51184;SDS011;37248;59.350;18.050;2022-11-15T08:09:56;12.17;;;8.93;;
51184;SDS011;37248;59.350;18.050;2022-11-15T08:12:21;12.67;;;8.80;;
51184;SDS011;37248;59.350;18.050;2022-11-15T08:14:47;15.13;;;9.10;;
51184;SDS011;37248;59.350;18.050;2022-11-15T08:17:12;11.83;;;8.43;;
51184;SDS011;37248;59.350;18.050;2022-11-15T08:19:37;15.07;;;8.90;;
51184;SDS011;37248;59.350;18.050;2022-11-15T08:22:02;11.63;;;8.70;;
51184;SDS011;37248;59.350;18.050;2022-11-15T08:24:28;12.03;;;8.70;;
51184;SDS011;37248;59.350;18.050;2022-11-15T08:26:53;12.53;;;8.97;;
51184;SDS011;37248;59.350;18.050;2022-11-15T08:29:18;12.77;;;8.70;;
51184;SDS011;37248;59.350;18.050;2022-11-15T08:31:43;15.77;;;10.17;;
51184;SDS011;37248;59.350;18.050;2022-11-15T08:34:09;16.03;;;9.70;;
51184;SDS011;37248;59.350;18.050;2022-11-15T08:36:34;17.83;;;9.90;;
51184;SDS011;37248;59.350;18.050;2022-11-15T08:38:59;16.37;;;10.17;;
51184;SDS011;37248;59.350;18.050;2022-11-15T08:41:26;16.77;;;10.27;;
51184;SDS011;37248;59.350;18.050;2022-11-15T08:43:51;16.03;;;10.03;;
51184;SDS011;37248;59.350;18.050;2022-11-15T08:46:16;13.03;;;9.53;;
51184;SDS011;37248;59.350;18.050;2022-11-15T08:48:43;16.70;;;10.32;;
51184;SDS011;37248;59.350;18.050;2022-11-15T08:51:08;16.00;;;9.23;;
51184;SDS011;37248;59.350;18.050;2022-11-15T08:53:33;16.43;;;9.27;;
51184;SDS011;37248;59.350;18.050;2022-11-15T08:55:58;14.10;;;9.60;;
51184;SDS011;37248;59.350;18.050;2022-11-15T08:58:24;12.20;;;8.93;;
51184;SDS011;37248;59.350;18.050;2022-11-15T09:00:49;15.33;;;9.20;;
51184;SDS011;37248;59.350;18.050;2022-11-15T09:03:14;14.53;;;9.17;;
51184;SDS011;37248;59.350;18.050;2022-11-15T09:05:40;14.65;;;8.95;;
51184;SDS011;37248;59.350;18.050;2022-11-15T09:08:05;10.90;;;8.70;;
51184;SDS011;37248;59.350;18.050;2022-11-15T09:10:31;14.17;;;9.30;;
51184;SDS011;37248;59.350;18.050;2022-11-15T09:12:56;14.83;;;9.20;;
51184;SDS011;37248;59.350;18.050;2022-11-15T09:15:22;16.40;;;8.87;;
51184;SDS011;37248;59.350;18.050;2022-11-15T09:17:47;24.13;;;8.37;;
51184;SDS011;37248;59.350;18.050;2022-11-15T09:20:12;15.83;;;8.80;;
51184;SDS011;37248;59.350;18.050;2022-11-15T09:22:37;14.93;;;8.83;;
51184;SDS011;37248;59.350;18.050;2022-11-15T09:25:03;17.92;;;8.88;;
51184;SDS011;37248;59.350;18.050;2022-11-15T09:27:29;15.40;;;8.80;;
51184;SDS011;37248;59.350;18.050;2022-11-15T09:29:54;22.75;;;10.10;;
51184;SDS011;37248;59.350;18.050;2022-11-15T09:32:20;83.90;;;13.97;;
51184;SDS011;37248;59.350;18.050;2022-11-15T09:34:45;87.43;;;15.87;;
51184;SDS011;37248;59.350;18.050;2022-11-15T09:37:11;92.83;;;17.63;;
51184;SDS011;37248;59.350;18.050;2022-11-15T09:39:37;82.10;;;14.93;;
51184;SDS011;37248;59.350;18.050;2022-11-15T09:44:44;71.85;;;13.50;;
51184;SDS011;37248;59.350;18.050;2022-11-15T09:47:38;56.97;;;13.10;;
51184;SDS011;37248;59.350;18.050;2022-11-15T09:50:14;62.58;;;11.98;;
51184;SDS011;37248;59.350;18.050;2022-11-15T09:52:41;53.20;;;11.77;;
51184;SDS011;37248;59.350;18.050;2022-11-15T09:55:08;42.20;;;10.27;;
51184;SDS011;37248;59.350;18.050;2022-11-15T10:05:10;33.87;;;9.23;;
51184;SDS011;37248;59.350;18.050;2022-11-15T10:10:47;35.07;;;10.00;;
51184;SDS011;37248;59.350;18.050;2022-11-15T10:12:53;41.80;;;7.93;;
51184;SDS011;37248;59.350;18.050;2022-11-15T10:15:18;23.23;;;7.80;;
51184;SDS011;37248;59.350;18.050;2022-11-15T10:20:23;24.33;;;8.02;;
51184;SDS011;37248;59.350;18.050;2022-11-15T10:23:02;25.92;;;7.75;;
51184;SDS011;37248;59.350;18.050;2022-11-15T10:25:30;24.70;;;7.90;;
51184;SDS011;37248;59.350;18.050;2022-11-15T10:27:58;22.50;;;7.72;;
51184;SDS011;37248;59.350;18.050;2022-11-15T10:30:29;16.88;;;6.63;;
51184;SDS011;37248;59.350;18.050;2022-11-15T10:32:55;22.95;;;7.63;;
51184;SDS011;37248;59.350;18.050;2022-11-15T10:35:25;20.40;;;7.07;;
51184;SDS011;37248;59.350;18.050;2022-11-15T10:37:50;24.58;;;6.80;;
51184;SDS011;37248;59.350;18.050;2022-11-15T10:40:17;19.15;;;6.63;;
51184;SDS011;37248;59.350;18.050;2022-11-15T10:42:43;20.88;;;6.30;;
51184;SDS011;37248;59.350;18.050;2022-11-15T10:45:41;17.87;;;6.17;;
51184;SDS011;37248;59.350;18.050;2022-11-15T10:50:37;15.68;;;5.95;;
51184;SDS011;37248;59.350;18.050;2022-11-15T10:53:03;18.65;;;5.80;;
51184;SDS011;37248;59.350;18.050;2022-11-15T10:55:29;12.13;;;5.28;;
51184;SDS011;37248;59.350;18.050;2022-11-15T10:58:09;13.27;;;5.57;;
51184;SDS011;37248;59.350;18.050;2022-11-15T11:00:44;13.48;;;5.10;;
51184;SDS011;37248;59.350;18.050;2022-11-15T11:06:06;11.93;;;5.05;;
51184;SDS011;37248;59.350;18.050;2022-11-15T11:08:32;11.15;;;4.43;;
51184;SDS011;37248;59.350;18.050;2022-11-15T11:10:59;10.02;;;4.75;;
51184;SDS011;37248;59.350;18.050;2022-11-15T11:13:26;8.13;;;4.55;;
51184;SDS011;37248;59.350;18.050;2022-11-15T11:21:10;10.98;;;4.32;;
51184;SDS011;37248;59.350;18.050;2022-11-15T11:23:44;14.50;;;4.57;;
51184;SDS011;37248;59.350;18.050;2022-11-15T11:29:14;13.65;;;4.15;;
51184;SDS011;37248;59.350;18.050;2022-11-15T11:31:44;10.70;;;4.47;;
51184;SDS011;37248;59.350;18.050;2022-11-15T11:39:39;8.77;;;4.20;;
51184;SDS011;37248;59.350;18.050;2022-11-15T11:42:43;17.52;;;4.50;;
51184;SDS011;37248;59.350;18.050;2022-11-15T11:47:48;10.43;;;3.90;;
51184;SDS011;37248;59.350;18.050;2022-11-15T11:50:19;10.75;;;3.70;;
51184;SDS011;37248;59.350;18.050;2022-11-15T11:52:58;8.57;;;3.90;;
51184;SDS011;37248;59.350;18.050;2022-11-15T11:55:27;12.07;;;3.90;;
51184;SDS011;37248;59.350;18.050;2022-11-15T11:58:12;9.00;;;3.50;;
51184;SDS011;37248;59.350;18.050;2022-11-15T12:00:40;8.10;;;3.13;;
51184;SDS011;37248;59.350;18.050;2022-11-15T12:05:44;9.83;;;3.30;;
51184;SDS011;37248;59.350;18.050;2022-11-15T12:10:47;7.95;;;3.05;;
51184;SDS011;37248;59.350;18.050;2022-11-15T12:13:18;9.02;;;3.10;;
51184;SDS011;37248;59.350;18.050;2022-11-15T12:15:48;6.93;;;2.90;;
51184;SDS011;37248;59.350;18.050;2022-11-15T12:18:16;8.13;;;3.60;;
51184;SDS011;37248;59.350;18.050;2022-11-15T12:20:42;6.30;;;3.17;;
51184;SDS011;37248;59.350;18.050;2022-11-15T12:23:19;8.48;;;2.90;;
51184;SDS011;37248;59.350;18.050;2022-11-15T12:31:01;7.57;;;3.20;;
51184;SDS011;37248;59.350;18.050;2022-11-15T12:36:09;8.68;;;2.90;;
51184;SDS011;37248;59.350;18.050;2022-11-15T12:38:54;11.10;;;3.23;;
51184;SDS011;37248;59.350;18.050;2022-11-15T12:41:20;9.75;;;3.08;;
51184;SDS011;37248;59.350;18.050;2022-11-15T12:43:46;11.77;;;3.10;;
51184;SDS011;37248;59.350;18.050;2022-11-15T12:46:19;12.77;;;3.17;;
51184;SDS011;37248;59.350;18.050;2022-11-15T12:51:11;17.60;;;3.40;;
51184;SDS011;37248;59.350;18.050;2022-11-15T12:53:36;8.55;;;2.50;;
51184;SDS011;37248;59.350;18.050;2022-11-15T13:01:06;7.82;;;2.65;;
51184;SDS011;37248;59.350;18.050;2022-11-15T13:03:31;12.87;;;2.73;;
51184;SDS011;37248;59.350;18.050;2022-11-15T13:05:57;10.30;;;2.60;;
51184;SDS011;37248;59.350;18.050;2022-11-15T13:08:43;9.77;;;2.33;;
51184;SDS011;37248;59.350;18.050;2022-11-15T13:13:53;7.38;;;2.70;;
51184;SDS011;37248;59.350;18.050;2022-11-15T13:16:20;8.53;;;2.30;;
51184;SDS011;37248;59.350;18.050;2022-11-15T13:18:52;8.70;;;2.60;;
51184;SDS011;37248;59.350;18.050;2022-11-15T13:21:22;7.75;;;2.10;;
51184;SDS011;37248;59.350;18.050;2022-11-15T13:24:13;9.82;;;2.30;;
51184;SDS011;37248;59.350;18.050;2022-11-15T13:26:39;6.88;;;2.90;;
51184;SDS011;37248;59.350;18.050;2022-11-15T13:29:04;5.72;;;2.70;;
51184;SDS011;37248;59.350;18.050;2022-11-15T13:31:42;10.33;;;2.70;;
51184;SDS011;37248;59.350;18.050;2022-11-15T13:34:41;8.63;;;3.28;;
51184;SDS011;37248;59.350;18.050;2022-11-15T13:37:00;9.50;;;3.63;;
51184;SDS011;37248;59.350;18.050;2022-11-15T13:41:55;14.13;;;3.60;;
51184;SDS011;37248;59.350;18.050;2022-11-15T13:44:21;10.10;;;4.00;;
51184;SDS011;37248;59.350;18.050;2022-11-15T13:46:47;13.90;;;4.22;;
51184;SDS011;37248;59.350;18.050;2022-11-15T13:49:12;13.13;;;5.90;;
51184;SDS011;37248;59.350;18.050;2022-11-15T13:51:46;18.93;;;8.57;;
51184;SDS011;37248;59.350;18.050;2022-11-15T13:56:37;28.73;;;16.30;;
51184;SDS011;37248;59.350;18.050;2022-11-15T13:59:09;29.00;;;16.27;;
51184;SDS011;37248;59.350;18.050;2022-11-15T14:01:34;26.98;;;15.35;;
51184;SDS011;37248;59.350;18.050;2022-11-15T14:04:00;32.50;;;16.03;;
51184;SDS011;37248;59.350;18.050;2022-11-15T14:06:26;28.53;;;15.03;;
51184;SDS011;37248;59.350;18.050;2022-11-15T14:09:15;30.27;;;15.50;;
51184;SDS011;37248;59.350;18.050;2022-11-15T14:11:54;29.75;;;15.05;;
51184;SDS011;37248;59.350;18.050;2022-11-15T14:14:21;28.83;;;14.53;;
51184;SDS011;37248;59.350;18.050;2022-11-15T14:16:51;29.42;;;15.05;;
51184;SDS011;37248;59.350;18.050;2022-11-15T14:19:39;25.08;;;13.20;;
51184;SDS011;37248;59.350;18.050;2022-11-15T14:22:09;25.52;;;12.25;;
51184;SDS011;37248;59.350;18.050;2022-11-15T14:24:35;22.50;;;12.07;;
51184;SDS011;37248;59.350;18.050;2022-11-15T14:29:44;22.63;;;11.70;;
51184;SDS011;37248;59.350;18.050;2022-11-15T14:32:14;22.53;;;11.43;;
51184;SDS011;37248;59.350;18.050;2022-11-15T14:34:40;26.70;;;11.25;;
51184;SDS011;37248;59.350;18.050;2022-11-15T14:37:19;21.27;;;10.07;;
51184;SDS011;37248;59.350;18.050;2022-11-15T14:39:45;23.00;;;9.70;;
51184;SDS011;37248;59.350;18.050;2022-11-15T14:42:10;20.40;;;10.10;;
51184;SDS011;37248;59.350;18.050;2022-11-15T14:44:35;20.93;;;8.83;;
51184;SDS011;37248;59.350;18.050;2022-11-15T14:47:01;30.27;;;10.17;;
51184;SDS011;37248;59.350;18.050;2022-11-15T14:49:26;18.17;;;8.80;;
51184;SDS011;37248;59.350;18.050;2022-11-15T14:51:51;17.57;;;8.90;;
51184;SDS011;37248;59.350;18.050;2022-11-15T14:54:16;22.27;;;8.80;;
51184;SDS011;37248;59.350;18.050;2022-11-15T14:56:42;17.00;;;8.60;;
51184;SDS011;37248;59.350;18.050;2022-11-15T14:59:07;17.98;;;8.63;;
51184;SDS011;37248;59.350;18.050;2022-11-15T15:01:32;15.97;;;8.27;;
51184;SDS011;37248;59.350;18.050;2022-11-15T15:03:58;15.45;;;8.38;;
51184;SDS011;37248;59.350;18.050;2022-11-15T15:06:23;18.60;;;8.40;;
51184;SDS011;37248;59.350;18.050;2022-11-15T15:08:49;17.93;;;7.77;;
51184;SDS011;37248;59.350;18.050;2022-11-15T15:11:18;16.73;;;7.45;;
51184;SDS011;37248;59.350;18.050;2022-11-15T15:13:44;16.35;;;8.07;;
51184;SDS011;37248;59.350;18.050;2022-11-15T15:16:10;20.20;;;8.80;;
51184;SDS011;37248;59.350;18.050;2022-11-15T15:18:35;22.23;;;7.50;;
51184;SDS011;37248;59.350;18.050;2022-11-15T15:21:00;16.47;;;7.67;;
51184;SDS011;37248;59.350;18.050;2022-11-15T15:23:28;19.70;;;7.43;;
51184;SDS011;37248;59.350;18.050;2022-11-15T15:25:56;17.85;;;8.50;;
51184;SDS011;37248;59.350;18.050;2022-11-15T15:28:21;16.52;;;7.70;;
51184;SDS011;37248;59.350;18.050;2022-11-15T15:30:46;14.23;;;7.43;;
51184;SDS011;37248;59.350;18.050;2022-11-15T15:33:11;15.97;;;7.60;;
51184;SDS011;37248;59.350;18.050;2022-11-15T15:35:37;19.30;;;8.10;;
51184;SDS011;37248;59.350;18.050;2022-11-15T15:38:02;18.73;;;8.30;;
51184;SDS011;37248;59.350;18.050;2022-11-15T15:40:29;16.42;;;8.20;;
51184;SDS011;37248;59.350;18.050;2022-11-15T15:42:54;19.58;;;8.60;;
51184;SDS011;37248;59.350;18.050;2022-11-15T15:45:19;21.73;;;8.53;;
51184;SDS011;37248;59.350;18.050;2022-11-15T15:47:45;15.93;;;9.13;;
51184;SDS011;37248;59.350;18.050;2022-11-15T15:52:49;21.85;;;10.07;;
51184;SDS011;37248;59.350;18.050;2022-11-15T15:55:15;16.07;;;9.43;;
51184;SDS011;37248;59.350;18.050;2022-11-15T15:57:40;19.37;;;11.00;;
51184;SDS011;37248;59.350;18.050;2022-11-15T16:00:05;14.73;;;10.97;;
51184;SDS011;37248;59.350;18.050;2022-11-15T16:02:31;17.52;;;10.68;;